Time,TemperatureF,DewpointF,PressureIn,WindDirection,WindDirectionDegrees,WindSpeedMPH,WindSpeedGustMPH,Humidity,HourlyPrecipIn,Conditions,Clouds,dailyrainin,SolarRadiationWatts/m^2,SoftwareType,DateUTC
2013-05-08 00:21:00,38.0,34.0,-100.00,ENE,71,6.0,9.0,84,0.00,,,-99.99,1.000000,,2013-05-08 06:21:00,
2013-05-08 00:32:00,38.0,34.0,-100.00,ENE,71,6.0,9.0,84,0.00,,,-99.99,1.000000,,2013-05-08 06:32:00,
2013-05-08 00:41:00,38.0,34.0,-100.00,ENE,71,6.0,9.0,84,0.00,,,-99.99,1.000000,,2013-05-08 06:41:00,
2013-05-08 00:51:00,38.0,34.0,-100.00,ENE,71,6.0,9.0,84,0.00,,,-99.99,1.000000,,2013-05-08 06:51:00,
2013-05-08 01:21:00,38.0,34.0,-100.00,ESE,104,3.0,8.0,85,0.01,,,0.39,1.000000,,2013-05-08 07:21:00,
2013-05-08 01:31:00,38.0,34.0,-100.00,ESE,104,3.0,8.0,85,0.01,,,0.39,1.000000,,2013-05-08 07:31:00,
2013-05-08 01:42:00,38.0,34.0,-100.00,ESE,104,3.0,8.0,85,0.01,,,0.39,1.000000,,2013-05-08 07:42:00,
2013-05-08 01:52:00,38.0,34.0,-100.00,ESE,104,3.0,8.0,85,0.01,,,0.39,1.000000,,2013-05-08 07:52:00,
2013-05-08 02:21:00,38.0,34.0,-100.00,SSE,148,4.0,14.0,84,0.01,,,0.40,1.000000,,2013-05-08 08:21:00,
2013-05-08 02:31:00,38.0,34.0,-100.00,SSE,148,4.0,14.0,84,0.01,,,0.40,1.000000,,2013-05-08 08:31:00,
2013-05-08 02:42:00,38.0,34.0,-100.00,SSE,148,4.0,14.0,84,0.01,,,0.40,1.000000,,2013-05-08 08:42:00,
2013-05-08 02:51:00,38.0,34.0,-100.00,SSE,148,4.0,14.0,84,0.01,,,0.40,1.000000,,2013-05-08 08:51:00,
2013-05-08 03:21:00,37.0,34.0,-100.00,ENE,66,6.0,10.0,88,0.01,,,0.41,1.000000,,2013-05-08 09:21:00,
2013-05-08 03:32:00,37.0,34.0,-100.00,ENE,66,6.0,10.0,88,0.01,,,0.41,1.000000,,2013-05-08 09:32:00,
2013-05-08 03:42:00,37.0,34.0,-100.00,ENE,66,6.0,10.0,88,0.01,,,0.41,1.000000,,2013-05-08 09:42:00,
2013-05-08 03:52:00,37.0,34.0,-100.00,ENE,66,6.0,10.0,88,0.01,,,0.41,1.000000,,2013-05-08 09:52:00,
2013-05-08 04:22:00,37.0,33.0,-100.00,East,101,3.0,13.0,86,0.00,,,0.41,1.000000,,2013-05-08 10:22:00,
2013-05-08 04:33:00,37.0,33.0,-100.00,East,101,3.0,13.0,86,0.00,,,0.41,1.000000,,2013-05-08 10:33:00,
2013-05-08 04:42:00,37.0,33.0,-100.00,East,101,3.0,13.0,86,0.00,,,0.41,1.000000,,2013-05-08 10:42:00,
2013-05-08 04:52:00,37.0,33.0,-100.00,East,101,3.0,13.0,86,0.00,,,0.41,1.000000,,2013-05-08 10:52:00,
2013-05-08 05:22:00,35.0,32.0,-100.00,East,80,3.0,9.0,90,0.03,,,0.41,1.000000,,2013-05-08 11:22:00,
2013-05-08 05:32:00,35.0,32.0,-100.00,East,80,3.0,9.0,90,0.03,,,0.41,1.000000,,2013-05-08 11:32:00,
2013-05-08 05:42:00,35.0,32.0,-100.00,East,80,3.0,9.0,90,0.03,,,0.41,1.000000,,2013-05-08 11:42:00,
2013-05-08 05:52:00,35.0,32.0,-100.00,East,80,3.0,9.0,90,0.03,,,0.41,1.000000,,2013-05-08 11:52:00,
2013-05-08 06:21:00,34.0,32.0,-100.00,East,84,5.0,9.0,92,0.00,,,0.41,1.000000,,2013-05-08 12:21:00,
2013-05-08 06:31:00,34.0,32.0,-100.00,East,84,5.0,9.0,92,0.00,,,0.41,1.000000,,2013-05-08 12:31:00,
2013-05-08 06:41:00,34.0,32.0,-100.00,East,84,5.0,9.0,92,0.00,,,0.41,1.000000,,2013-05-08 12:41:00,
2013-05-08 06:51:00,34.0,32.0,-100.00,East,84,5.0,9.0,92,0.00,,,0.41,1.000000,,2013-05-08 12:51:00,
2013-05-08 07:21:00,33.0,31.0,-100.00,SSW,212,4.0,13.0,91,0.01,,,0.42,3.000000,,2013-05-08 13:21:00,
2013-05-08 07:32:00,33.0,31.0,-100.00,SSW,212,4.0,13.0,91,0.01,,,0.42,3.000000,,2013-05-08 13:32:00,
2013-05-08 07:42:00,33.0,31.0,-100.00,SSW,212,4.0,13.0,91,0.01,,,0.42,3.000000,,2013-05-08 13:42:00,
2013-05-08 07:52:00,33.0,31.0,-100.00,SSW,212,4.0,13.0,91,0.01,,,0.42,3.000000,,2013-05-08 13:52:00,
2013-05-08 08:21:00,33.0,31.0,-100.00,NW,317,0.0,5.0,94,0.00,,,0.42,11.000000,,2013-05-08 14:21:00,
2013-05-08 08:31:00,33.0,31.0,-100.00,NW,317,0.0,5.0,94,0.00,,,0.42,11.000000,,2013-05-08 14:31:00,
2013-05-08 08:42:00,33.0,31.0,-100.00,NW,317,0.0,5.0,94,0.00,,,0.42,11.000000,,2013-05-08 14:42:00,
2013-05-08 08:51:00,33.0,31.0,-100.00,NW,317,0.0,5.0,94,0.00,,,0.42,11.000000,,2013-05-08 14:51:00,
2013-05-08 09:21:00,33.0,31.0,-100.00,ENE,61,4.0,6.0,92,0.00,,,0.42,39.000000,,2013-05-08 15:21:00,
2013-05-08 09:33:00,33.0,31.0,-100.00,ENE,61,4.0,6.0,92,0.00,,,0.42,39.000000,,2013-05-08 15:33:00,
2013-05-08 09:42:00,33.0,31.0,-100.00,ENE,61,4.0,6.0,92,0.00,,,0.42,39.000000,,2013-05-08 15:42:00,
2013-05-08 09:52:00,33.0,31.0,-100.00,ENE,61,4.0,6.0,92,0.00,,,0.42,39.000000,,2013-05-08 15:52:00,
2013-05-08 10:23:00,39.0,35.0,-100.00,North,349,1.0,6.0,87,0.01,,,-99.99,155.000000,,2013-05-08 16:23:00,
2013-05-08 10:33:00,39.0,35.0,-100.00,North,349,1.0,6.0,87,0.01,,,-99.99,155.000000,,2013-05-08 16:33:00,
2013-05-08 10:42:00,39.0,35.0,-100.00,North,349,1.0,6.0,87,0.01,,,-99.99,155.000000,,2013-05-08 16:42:00,
2013-05-08 10:52:00,39.0,35.0,-100.00,North,349,1.0,6.0,87,0.01,,,-99.99,155.000000,,2013-05-08 16:52:00,
2013-05-08 11:22:00,41.0,33.0,-100.00,NW,305,5.0,8.0,74,0.13,,,-99.99,607.000000,,2013-05-08 17:22:00,
2013-05-08 11:31:00,41.0,33.0,-100.00,NW,305,5.0,8.0,74,0.13,,,-99.99,607.000000,,2013-05-08 17:31:00,
2013-05-08 11:41:00,41.0,33.0,-100.00,NW,305,5.0,8.0,74,0.13,,,-99.99,607.000000,,2013-05-08 17:41:00,
2013-05-08 11:52:00,41.0,33.0,-100.00,NW,305,5.0,8.0,74,0.13,,,-99.99,607.000000,,2013-05-08 17:52:00,
2013-05-08 12:21:00,42.0,34.0,-100.00,WNW,293,3.0,9.0,73,0.00,,,0.54,352.000000,,2013-05-08 18:21:00,
2013-05-08 12:31:00,42.0,34.0,-100.00,WNW,293,3.0,9.0,73,0.00,,,0.54,352.000000,,2013-05-08 18:31:00,
2013-05-08 12:42:00,42.0,34.0,-100.00,WNW,293,3.0,9.0,73,0.00,,,0.54,352.000000,,2013-05-08 18:42:00,
2013-05-08 12:51:00,42.0,34.0,-100.00,WNW,293,3.0,9.0,73,0.00,,,0.54,352.000000,,2013-05-08 18:51:00,
2013-05-08 13:21:00,44.0,34.0,-100.00,WNW,291,5.0,12.0,67,0.00,,,0.50,503.000000,,2013-05-08 19:21:00,
2013-05-08 13:32:00,44.0,34.0,-100.00,WNW,291,5.0,12.0,67,0.00,,,0.50,503.000000,,2013-05-08 19:32:00,
2013-05-08 13:42:00,44.0,34.0,-100.00,WNW,291,5.0,12.0,67,0.00,,,0.50,503.000000,,2013-05-08 19:42:00,
2013-05-08 13:52:00,44.0,34.0,-100.00,WNW,291,5.0,12.0,67,0.00,,,0.50,503.000000,,2013-05-08 19:52:00,
2013-05-08 14:22:00,48.0,33.0,-100.00,West,280,6.0,15.0,56,0.00,,,0.50,859.000000,,2013-05-08 20:22:00,
2013-05-08 14:32:00,48.0,33.0,-100.00,West,280,6.0,15.0,56,0.00,,,0.50,859.000000,,2013-05-08 20:32:00,
2013-05-08 14:41:00,48.0,33.0,-100.00,West,280,6.0,15.0,56,0.00,,,0.50,859.000000,,2013-05-08 20:41:00,
2013-05-08 14:51:00,48.0,33.0,-100.00,West,280,6.0,15.0,56,0.00,,,0.50,859.000000,,2013-05-08 20:51:00,
2013-05-08 15:21:00,46.0,30.0,-100.00,WNW,301,6.0,13.0,54,0.00,,,0.46,698.000000,,2013-05-08 21:21:00,
2013-05-08 15:33:00,46.0,30.0,-100.00,WNW,301,6.0,13.0,54,0.00,,,0.46,698.000000,,2013-05-08 21:33:00,
2013-05-08 15:43:00,46.0,30.0,-100.00,WNW,301,6.0,13.0,54,0.00,,,0.46,698.000000,,2013-05-08 21:43:00,
2013-05-08 15:52:00,46.0,30.0,-100.00,WNW,301,6.0,13.0,54,0.00,,,0.46,698.000000,,2013-05-08 21:52:00,
2013-05-08 16:22:00,46.0,31.0,-100.00,WSW,242,4.0,11.0,55,0.00,,,0.46,317.000000,,2013-05-08 22:22:00,
2013-05-08 16:33:00,46.0,31.0,-100.00,WSW,242,4.0,11.0,55,0.00,,,0.46,317.000000,,2013-05-08 22:33:00,
2013-05-08 16:42:00,46.0,31.0,-100.00,WSW,242,4.0,11.0,55,0.00,,,0.46,317.000000,,2013-05-08 22:42:00,
2013-05-08 16:52:00,46.0,31.0,-100.00,WSW,242,4.0,11.0,55,0.00,,,0.46,317.000000,,2013-05-08 22:52:00,
2013-05-08 17:22:00,42.0,32.0,-100.00,SSE,161,4.0,7.0,67,0.00,,,0.41,242.000000,,2013-05-08 23:22:00,
2013-05-08 17:32:00,42.0,32.0,-100.00,SSE,161,4.0,7.0,67,0.00,,,0.41,242.000000,,2013-05-08 23:32:00,
2013-05-08 17:42:00,42.0,32.0,-100.00,SSE,161,4.0,7.0,67,0.00,,,0.41,242.000000,,2013-05-08 23:42:00,
2013-05-08 17:52:00,42.0,32.0,-100.00,SSE,161,4.0,7.0,67,0.00,,,0.41,242.000000,,2013-05-08 23:52:00,
2013-05-08 18:42:00,47.0,29.0,-100.00,SSE,162,3.0,6.0,49,0.00,,,0.21,443.000000,,2013-05-09 00:42:00,
2013-05-08 18:51:00,47.0,29.0,-100.00,SSE,162,3.0,6.0,49,0.00,,,0.21,443.000000,,2013-05-09 00:51:00,
2013-05-08 19:22:00,43.0,31.0,-100.00,SSE,166,3.0,7.0,62,0.00,,,0.21,181.000000,,2013-05-09 01:22:00,
2013-05-08 19:32:00,43.0,31.0,-100.00,SSE,166,3.0,7.0,62,0.00,,,0.21,181.000000,,2013-05-09 01:32:00,
2013-05-08 19:42:00,43.0,31.0,-100.00,SSE,166,3.0,7.0,62,0.00,,,0.21,181.000000,,2013-05-09 01:42:00,
2013-05-08 19:52:00,43.0,31.0,-100.00,SSE,166,3.0,7.0,62,0.00,,,0.21,181.000000,,2013-05-09 01:52:00,
2013-05-08 20:21:00,40.0,32.0,-100.00,SE,143,2.0,6.0,72,0.00,,,0.21,44.000000,,2013-05-09 02:21:00,
2013-05-08 20:32:00,40.0,32.0,-100.00,SE,143,2.0,6.0,72,0.00,,,0.21,44.000000,,2013-05-09 02:32:00,
2013-05-08 20:41:00,40.0,32.0,-100.00,SE,143,2.0,6.0,72,0.00,,,0.21,44.000000,,2013-05-09 02:41:00,
2013-05-08 20:52:00,40.0,32.0,-100.00,SE,143,2.0,6.0,72,0.00,,,0.21,44.000000,,2013-05-09 02:52:00,
2013-05-08 21:21:00,39.0,31.0,-100.00,ESE,113,1.0,3.0,73,0.00,,,0.21,2.000000,,2013-05-09 03:21:00,
2013-05-08 21:33:00,39.0,31.0,-100.00,ESE,113,1.0,3.0,73,0.00,,,0.21,2.000000,,2013-05-09 03:33:00,
2013-05-08 21:43:00,39.0,31.0,-100.00,ESE,113,1.0,3.0,73,0.00,,,0.21,2.000000,,2013-05-09 03:43:00,
2013-05-08 21:52:00,39.0,31.0,-100.00,ESE,113,1.0,3.0,73,0.00,,,0.21,2.000000,,2013-05-09 03:52:00,
2013-05-08 22:23:00,38.0,31.0,-100.00,SW,218,0.0,2.0,76,0.00,,,0.21,1.000000,,2013-05-09 04:23:00,
2013-05-08 22:33:00,38.0,31.0,-100.00,SW,218,0.0,2.0,76,0.00,,,0.21,1.000000,,2013-05-09 04:33:00,
2013-05-08 22:43:00,38.0,31.0,-100.00,SW,218,0.0,2.0,76,0.00,,,0.21,1.000000,,2013-05-09 04:43:00,
2013-05-08 22:52:00,38.0,31.0,-100.00,SW,218,0.0,2.0,76,0.00,,,0.21,1.000000,,2013-05-09 04:52:00,
2013-05-08 23:22:00,38.0,34.0,-100.00,NW,307,2.0,8.0,86,0.00,,,0.21,1.000000,,2013-05-09 05:22:00,
2013-05-08 23:32:00,38.0,34.0,-100.00,NW,307,2.0,8.0,86,0.00,,,0.21,1.000000,,2013-05-09 05:32:00,
2013-05-08 23:42:00,38.0,34.0,-100.00,NW,307,2.0,8.0,86,0.00,,,0.21,1.000000,,2013-05-09 05:42:00,
2013-05-08 23:51:00,38.0,34.0,-100.00,NW,307,2.0,8.0,86,0.00,,,0.21,1.000000,,2013-05-09 05:51:00,